Latest Weather Observations for Perth Airport

IDW60801

Issued at 5:32 pm WST Thursday 2 July 2015 (issued every 30 minutes, with the page automatically refreshed every 10 minutes)

About weather observations | Map of weather stations | Latest weather observations for WA | Other Formats
Station Details ID: 009021 Name: PERTH AIRPORT Lat: -31.93 Lon: 115.98 Height: 15.4 m
Data from the previous 72 hours. | See also: Recent months at Perth Airport
Date/Time
WST
Temp
°C
App
Temp
°C
Dew
Point
Rel
Hum
%
Delta-T
°C
Wind Press
QNH
hPa
Press
MSL
hPa
Rain
since 9 am
mm
Dir
 
Spd
km/h
Gust
km/h
Spd
kts
Gust
kts
02/05:00pm 17.1 18.0 12.8 76 2.4 CALM 0 4 0 2 1021.1 - -
02/04:30pm 18.3 17.2 12.1 67 3.4 N 9 11 5 6 1021.1 - -
02/04:00pm 18.9 16.8 9.8 55 4.8 N 11 15 6 8 1020.8 - -
02/03:30pm 19.9 17.5 10.2 53 5.2 N 13 15 7 8 1020.7 - -
02/03:00pm 20.4 16.7 9.5 49 5.8 N 19 26 10 14 1020.9 1020.9 Trace
02/02:36pm 20.4 - 9.5 49 5.8 - - - - - 1020.8 - -
02/02:30pm - - - - - NNE 19 24 10 13 - - -
02/02:00pm 19.9 17.0 9.8 52 5.4 NNE 15 22 8 12 1021.0 - 0.0
02/01:30pm 18.8 15.3 10.2 57 4.6 NE 19 22 10 12 1021.3 - 0.0
02/01:00pm 18.2 15.6 10.8 62 4.0 NE 15 17 8 9 1021.5 - 0.0
02/12:30pm 17.4 15.2 10.9 65 3.5 NNE 13 17 7 9 1022.2 - 0.0
02/12:00pm 18.0 15.4 9.2 56 4.6 NE 13 19 7 10 1022.4 1022.4 0.0
02/11:30am 17.6 13.9 9.3 58 4.3 NE 19 22 10 12 1022.7 - 0.0
02/11:00am 17.1 15.2 8.9 58 4.2 NE 9 11 5 6 1023.1 - 0.0
02/10:30am 16.7 13.2 8.7 59 4.1 ENE 17 19 9 10 1023.3 - 0.0
02/09:30am 16.0 12.4 8.5 61 3.8 ENE 17 20 9 11 1023.0 - 0.0
02/09:00am 15.6 12.0 8.2 61 3.7 ENE 17 20 9 11 1023.0 1023.0 1.8
02/08:30am 15.3 11.6 7.9 61 3.7 ENE 17 26 9 14 1023.0 - 1.8
02/08:00am 15.1 10.9 8.1 63 3.5 ENE 20 28 11 15 1023.2 - 1.8
02/07:30am 15.3 11.1 7.6 60 3.8 ENE 19 28 10 15 1022.8 - 1.8
02/07:00am 15.5 11.6 7.2 57 4.1 ENE 17 26 9 14 1022.3 - 1.8
02/06:30am 15.0 10.9 8.0 63 3.5 E 19 24 10 13 1022.1 - 1.8
02/06:00am 14.8 11.2 8.4 65 3.2 ENE 17 22 9 12 1022.2 1022.2 1.8
02/05:30am 15.1 11.2 8.8 66 3.2 ENE 19 28 10 15 1022.0 - 1.8
02/05:00am 15.1 11.3 9.0 67 3.1 ENE 19 26 10 14 1022.1 - 1.8
02/04:30am 15.1 11.3 9.0 67 3.1 ENE 19 22 10 12 1022.3 - 1.8
02/04:00am 14.8 11.6 10.0 73 2.5 ENE 17 20 9 11 1022.9 - 1.8
02/03:30am 14.4 10.5 10.8 79 1.9 ENE 22 28 12 15 1023.4 - 1.8
02/03:00am 14.4 11.9 11.0 80 1.8 NE 15 20 8 11 1023.6 1023.7 1.8
02/02:30am 14.4 11.4 10.8 79 1.9 ENE 17 22 9 12 1022.8 - 1.8
02/02:00am 14.5 13.6 10.7 78 2.0 E 6 11 3 6 1022.6 - 1.8
02/01:30am 14.1 11.7 11.5 84 1.4 E 15 26 8 14 1022.9 - 1.8
02/01:00am 13.7 11.9 12.2 91 0.8 E 13 15 7 8 1023.9 - 1.8
02/12:30am 14.0 13.6 12.5 91 0.8 NE 6 13 3 7 1024.1 - 1.6
02/12:00am 15.0 11.8 11.2 78 2.0 NE 19 24 10 13 1024.0 1024.1 0.8
 
Date/Time
WST
Temp
°C
App
Temp
°C
Dew
Point
Rel
Hum
%
Delta-T
°C
Wind Press
QNH
hPa
Press
MSL
hPa
Rain
since 9 am
mm
Dir
 
Spd
km/h
Gust
km/h
Spd
kts
Gust
kts
01/11:30pm 14.4 12.5 11.8 84 1.4 NE 13 17 7 9 1023.7 - 0.8
01/11:00pm 14.5 11.8 11.7 83 1.5 NE 17 30 9 16 1023.9 - 0.6
01/10:30pm 14.0 11.4 12.1 88 1.0 ENE 17 32 9 17 1024.2 - 0.6
01/10:00pm 13.8 12.4 12.1 89 0.9 NE 11 13 6 7 1025.0 - 0.6
01/09:30pm 13.9 12.8 12.0 88 1.0 ENE 9 11 5 6 1024.9 - 0.6
01/09:00pm 14.1 12.6 11.9 86 1.2 E 11 13 6 7 1024.8 1024.9 0.4
01/08:30pm 14.2 12.7 11.8 85 1.3 ENE 11 13 6 7 1024.9 - 0.2
01/08:00pm 14.2 13.1 11.8 85 1.3 E 9 11 5 6 1024.5 - 0.2
01/07:30pm 14.5 14.0 12.1 85 1.3 ENE 6 7 3 4 1024.4 - 0.2
01/07:00pm 14.8 12.8 11.6 81 1.7 E 13 15 7 8 1024.1 - 0.2
01/06:30pm 15.2 12.8 11.5 78 2.0 ENE 15 22 8 12 1024.2 - 0.0
01/05:30pm 15.8 14.5 11.1 73 2.5 NE 9 11 5 6 1024.3 - 0.0
01/05:00pm 16.0 14.3 11.3 73 2.5 ENE 11 11 6 6 1024.2 - 0.0
01/04:30pm 16.2 14.9 11.4 73 2.6 N 9 11 5 6 1024.3 - 0.0
01/04:00pm 17.0 14.0 9.3 60 4.0 N 15 19 8 10 1024.1 - 0.0
01/03:30pm 18.3 15.8 9.8 57 4.5 N 13 15 7 8 1023.7 - 0.0
01/03:00pm 18.7 17.2 10.5 59 4.4 N 9 11 5 6 1023.4 1023.5 0.0
01/02:30pm 19.2 17.5 8.3 49 5.6 N 7 9 4 5 1023.4 - 0.0
01/02:00pm 19.2 16.8 7.1 45 6.1 NE 9 11 5 6 1023.1 - 0.0
01/01:30pm 19.4 17.3 6.8 44 6.3 N 7 9 4 5 1023.0 - 0.0
01/01:00pm 19.3 16.8 6.7 44 6.3 N 9 9 5 5 1023.2 - 0.0
01/12:30pm 19.2 17.0 7.8 47 5.8 NNE 9 13 5 7 1023.4 - 0.0
01/12:00pm 18.8 16.8 8.8 52 5.2 NNE 9 13 5 7 1023.7 1023.8 0.0
01/11:30am 18.3 15.6 8.8 54 4.9 N 13 17 7 9 1023.9 - 0.0
01/11:00am 18.9 15.3 6.9 45 6.0 NE 15 19 8 10 1023.8 - 0.0
01/10:30am 18.0 15.5 8.4 53 4.9 NNE 11 13 6 7 1024.4 - 0.0
01/10:00am 18.5 16.4 8.1 50 5.3 NNE 9 11 5 6 1024.6 - 0.0
01/09:30am 17.6 14.6 7.7 52 5.0 ENE 13 26 7 14 1024.1 - 0.0
01/09:00am 14.6 12.4 7.9 64 3.3 NNE 9 11 5 6 1024.1 1024.2 0.0
01/08:30am 14.9 12.8 8.3 64 3.3 NNE 9 11 5 6 1024.2 - 0.0
01/08:00am 13.7 11.2 8.3 70 2.7 NE 11 13 6 7 1023.8 - 0.0
01/07:30am 13.6 11.6 8.6 72 2.5 NNE 9 11 5 6 1024.0 - 0.0
01/07:00am 12.2 10.3 9.0 81 1.6 NE 9 11 5 6 1023.6 - 0.0
01/06:30am 11.0 9.1 9.0 87 1.0 N 9 9 5 5 1023.2 - 0.0
01/06:00am 12.6 11.4 9.4 81 1.6 NE 6 7 3 4 1023.0 1023.0 0.0
01/05:30am 12.9 11.4 9.1 78 1.9 NNE 7 9 4 5 1023.0 - 0.0
01/05:00am 13.8 12.3 9.0 73 2.4 NNE 7 11 4 6 1023.0 - 0.0
01/04:30am 13.1 11.9 9.6 79 1.8 NNE 6 9 3 5 1023.1 - 0.0
01/04:00am 14.0 12.5 9.1 72 2.5 NE 7 11 4 6 1022.8 - 0.0
01/03:30am 13.9 12.1 9.4 74 2.3 NNE 9 9 5 5 1023.1 - 0.0
01/03:00am 14.6 13.6 10.2 75 2.3 NE 6 7 3 4 1023.5 1023.6 0.0
01/02:30am 14.9 14.0 9.4 69 2.8 NE 4 9 2 5 1023.3 - 0.0
01/02:00am 14.5 12.0 9.8 73 2.4 NE 13 15 7 8 1023.0 - 0.0
01/01:30am 14.3 12.2 9.8 74 2.3 ENE 11 13 6 7 1023.4 - 0.0
01/01:00am 14.5 12.4 9.8 73 2.4 NNE 11 13 6 7 1023.6 - 0.0
01/12:30am 13.9 12.4 10.4 79 1.8 NE 9 13 5 7 1023.5 - 0.0
01/12:00am 13.8 12.2 10.3 79 1.8 NE 9 11 5 6 1023.0 1023.0 0.0
 
Date/Time
WST
Temp
°C
App
Temp
°C
Dew
Point
Rel
Hum
%
Delta-T
°C
Wind Press
QNH
hPa
Press
MSL
hPa
Rain
since 9 am
mm
Dir
 
Spd
km/h
Gust
km/h
Spd
kts
Gust
kts
30/11:30pm 13.8 12.2 10.1 78 1.9 NNW 9 13 5 7 1023.6 - 0.0
30/11:00pm 14.4 12.8 10.2 76 2.2 NNE 9 13 5 7 1023.0 - 0.0
30/10:30pm 14.9 13.6 10.1 73 2.5 NNE 7 9 4 5 1023.5 - 0.0
30/10:00pm 15.5 15.1 9.7 68 3.0 NE 2 11 1 6 1023.1 - 0.0
30/09:30pm 15.5 13.5 10.1 70 2.8 NNE 11 15 6 8 1023.2 - 0.0
30/09:00pm 14.9 14.0 10.5 75 2.3 N 6 7 3 4 1023.4 1023.5 0.0
30/08:30pm 15.6 14.5 10.7 72 2.6 E 7 9 4 5 1023.3 - 0.0
30/08:00pm 15.9 13.5 10.2 69 3.0 ENE 13 17 7 9 1022.8 - 0.0
30/07:30pm 15.6 14.1 10.7 72 2.6 NE 9 11 5 6 1023.4 - 0.0
30/07:00pm 15.4 13.9 10.7 73 2.5 NE 9 11 5 6 1022.9 - 0.0
30/06:30pm 15.9 14.4 10.4 70 2.9 ENE 9 13 5 7 1022.5 - 0.0
30/06:00pm 16.4 15.8 10.5 68 3.1 WNW 4 9 2 5 1022.2 1022.2 0.0
30/05:30pm 18.2 17.0 10.3 60 4.2 WNW 7 13 4 7 1021.7 - 0.0
30/05:00pm 19.5 17.4 9.9 54 5.1 WNW 11 15 6 8 1021.9 - 0.0
30/04:30pm 20.1 17.8 9.1 49 5.8 W 11 17 6 9 1022.0 - 0.0
30/04:00pm 20.7 17.9 8.4 45 6.4 W 13 19 7 10 1022.0 - 0.0
30/03:30pm 21.5 18.2 6.5 37 7.6 W 13 19 7 10 1021.6 - 0.0
30/03:00pm 22.2 17.8 5.0 32 8.5 WNW 17 26 9 14 1021.7 1021.7 0.0
30/02:30pm 22.9 18.6 3.4 28 9.4 NW 15 20 8 11 1021.6 - 0.0
30/02:00pm 22.9 18.0 2.3 26 9.7 N 17 26 9 14 1021.6 - 0.0
30/01:30pm 21.5 16.7 2.5 28 8.9 N 17 22 9 12 1021.2 - 0.0
30/01:00pm 21.5 15.7 2.2 28 9.0 N 22 30 12 16 1021.4 - 0.0
30/12:30pm 21.0 15.9 3.3 31 8.4 NNE 19 26 10 14 1022.0 - 0.0
30/12:00pm 20.3 15.0 1.7 29 8.5 NNE 19 26 10 14 1022.7 1022.7 0.0
30/11:30am 20.4 15.0 2.2 30 8.4 N 20 30 11 16 1023.3 - 0.0
30/11:00am 19.7 14.4 1.9 30 8.1 NNE 19 32 10 17 1023.5 - 0.0
30/10:30am 19.0 13.7 3.0 34 7.4 NNE 20 26 11 14 1023.9 - 0.0
30/10:00am 16.0 12.1 3.5 43 5.7 NE 13 17 7 9 1024.0 - 0.0
30/09:30am 14.7 11.1 3.1 45 5.2 NE 11 15 6 8 1024.0 - 0.0
30/09:00am 13.3 8.5 2.6 48 4.7 ENE 17 20 9 11 1023.5 1023.6 0.0
30/08:30am 12.5 8.0 2.3 50 4.4 NE 15 19 8 10 1023.5 - 0.0
30/08:00am 11.6 7.5 2.3 53 4.0 NE 13 15 7 8 1023.4 - 0.0
30/07:30am 10.8 6.3 2.3 55 3.6 NE 15 19 8 10 1023.0 - 0.0
30/07:00am 10.6 6.6 2.7 58 3.4 NE 13 17 7 9 1023.4 - 0.0
30/06:30am 10.4 6.8 2.7 59 3.3 NE 11 13 6 7 1023.4 - 0.0
30/06:00am 10.2 6.6 2.7 59 3.2 NE 11 15 6 8 1023.2 1023.3 0.0
30/05:30am 10.2 6.6 3.0 61 3.1 NE 11 13 6 7 1023.0 - 0.0
30/05:00am 10.8 6.8 2.6 57 3.5 NE 13 15 7 8 1022.9 - 0.0
30/04:30am 11.1 7.8 2.7 56 3.6 NNE 9 11 5 6 1022.9 - 0.0
30/04:00am 11.4 7.4 2.9 56 3.7 ENE 13 17 7 9 1022.6 - 0.0
30/03:30am 11.3 7.7 3.0 56 3.6 ENE 11 13 6 7 1022.6 - 0.0
30/03:00am 11.2 7.3 3.2 58 3.5 ENE 13 17 7 9 1022.9 1022.9 0.0
30/02:30am 11.0 7.9 3.7 60 3.2 ENE 9 11 5 6 1023.0 - 0.0
30/02:00am 11.4 8.8 4.0 60 3.3 N 7 9 4 5 1023.0 - 0.0
30/01:30am 11.8 8.8 3.9 58 3.5 NE 9 17 5 9 1022.7 - 0.0
30/01:00am 11.9 8.1 4.1 59 3.5 ENE 13 15 7 8 1022.6 - 0.0
30/12:30am 11.6 8.3 4.8 63 3.1 NE 11 15 6 8 1022.5 - 0.0
30/12:00am 11.6 9.2 5.3 65 2.9 NNE 7 9 4 5 1023.0 1023.0 0.0
 
Date/Time
WST
Temp
°C
App
Temp
°C
Dew
Point
Rel
Hum
%
Delta-T
°C
Wind Press
QNH
hPa
Press
MSL
hPa
Rain
since 9 am
mm
Dir
 
Spd
km/h
Gust
km/h
Spd
kts
Gust
kts
29/11:30pm 11.6 8.9 5.5 66 2.8 NNE 9 11 5 6 1023.4 - 0.0
29/11:00pm 12.1 9.4 5.6 64 3.0 NE 9 11 5 6 1023.3 - 0.0
29/10:30pm 12.4 9.0 5.7 63 3.1 NE 13 19 7 10 1023.3 - 0.0
29/10:00pm 11.4 8.4 6.0 69 2.5 ENE 11 17 6 9 1023.5 - 0.0
29/09:30pm 10.2 6.6 6.6 78 1.7 ENE 15 15 8 8 1023.6 - 0.0
29/09:00pm 11.0 8.2 7.0 76 1.9 ENE 11 11 6 6 1023.4 1023.5 0.0
29/08:30pm 13.2 10.0 6.7 64 3.1 NNE 13 15 7 8 1023.1 - 0.0
29/08:00pm 12.5 10.2 7.6 72 2.4 N 9 11 5 6 1023.0 - 0.0
29/07:30pm 14.3 12.3 7.3 63 3.4 NNE 7 7 4 4 1023.0 - 0.0
29/07:00pm 14.9 12.2 7.4 61 3.7 ENE 11 13 6 7 1023.1 - 0.0
29/06:30pm 14.9 11.8 7.4 61 3.7 ENE 13 20 7 11 1023.2 - 0.0
29/06:00pm 14.5 12.2 7.4 62 3.5 ENE 9 11 5 6 1023.0 1023.0 0.0

Other Formats:

Comma delimited format used in spreadsheet applications
http://www.bom.gov.au/fwo/IDW60801/IDW60801.94610.axf

JavaScript Object Notation format (JSON) in row-major order
http://www.bom.gov.au/fwo/IDW60801/IDW60801.94610.json